Time,TemperatureF,DewpointF,PressureIn,WindDirection,WindDirectionDegrees,WindSpeedMPH,WindSpeedGustMPH,Humidity,HourlyPrecipIn,Conditions,Clouds,dailyrainin,SoftwareType,DateUTC
2013-06-23 00:03:00,64.6,61.0,30.04,SE,136,0.0,2.0,89,0.00,,,0.00,weatherlink.com 1.10,2013-06-23 04:03:00,
2013-06-23 00:18:00,64.9,62.0,30.05,ESE,109,0.0,5.0,89,0.00,,,0.00,weatherlink.com 1.10,2013-06-23 04:18:00,
2013-06-23 00:33:00,65.9,62.0,30.05,ESE,111,0.0,5.0,88,0.00,,,0.00,weatherlink.com 1.10,2013-06-23 04:33:00,
2013-06-23 00:48:00,66.9,63.0,30.05,North,350,0.0,6.0,86,0.00,,,0.00,weatherlink.com 1.10,2013-06-23 04:48:00,
2013-06-23 01:03:00,67.0,62.0,30.05,North,355,2.0,10.0,85,0.00,,,0.00,weatherlink.com 1.10,2013-06-23 05:03:00,
2013-06-23 01:18:00,68.0,62.0,30.05,South,191,5.0,6.0,82,0.00,,,0.00,weatherlink.com 1.10,2013-06-23 05:18:00,
2013-06-23 01:33:00,68.6,63.0,30.04,South,171,1.0,10.0,82,0.00,,,0.00,weatherlink.com 1.10,2013-06-23 05:33:00,
2013-06-23 01:48:00,66.8,64.0,30.04,ESE,123,0.0,3.0,89,0.01,,,0.01,weatherlink.com 1.10,2013-06-23 05:48:00,
2013-06-23 02:03:00,65.0,63.0,30.04,ESE,123,0.0,3.0,93,0.01,,,0.01,weatherlink.com 1.10,2013-06-23 06:03:00,
2013-06-23 02:18:00,64.1,62.0,30.03,ESE,123,0.0,2.0,94,0.01,,,0.01,weatherlink.com 1.10,2013-06-23 06:18:00,
2013-06-23 02:33:00,63.7,62.0,30.02,ESE,123,0.0,2.0,95,0.01,,,0.01,weatherlink.com 1.10,2013-06-23 06:33:00,
2013-06-23 02:48:00,65.0,63.0,30.02,NNE,27,2.0,6.0,92,0.00,,,0.01,weatherlink.com 1.10,2013-06-23 06:48:00,
2013-06-23 03:03:00,67.4,63.0,30.01,NNE,30,5.0,7.0,86,0.00,,,0.01,weatherlink.com 1.10,2013-06-23 07:03:00,
2013-06-23 03:18:00,66.8,63.0,30.01,ENE,74,1.0,3.0,88,0.00,,,0.01,weatherlink.com 1.10,2013-06-23 07:18:00,
2013-06-23 03:33:00,67.2,63.0,30.01,SSE,147,5.0,7.0,87,0.00,,,0.01,weatherlink.com 1.10,2013-06-23 07:33:00,
2013-06-23 03:48:00,66.7,63.0,30.01,NE,42,1.0,4.0,87,0.00,,,0.01,weatherlink.com 1.10,2013-06-23 07:48:00,
2013-06-23 04:03:00,65.7,62.0,30.01,NE,42,1.0,3.0,89,0.00,,,0.01,weatherlink.com 1.10,2013-06-23 08:03:00,
2013-06-23 04:18:00,65.1,62.0,30.01,NE,42,2.0,4.0,90,0.00,,,0.01,weatherlink.com 1.10,2013-06-23 08:18:00,
2013-06-23 04:33:00,64.7,62.0,30.01,NE,42,0.0,2.0,91,0.00,,,0.01,weatherlink.com 1.10,2013-06-23 08:33:00,
2013-06-23 04:48:00,63.9,62.0,30.01,NE,42,2.0,2.0,92,0.00,,,0.01,weatherlink.com 1.10,2013-06-23 08:48:00,
2013-06-23 05:03:00,63.7,62.0,30.02,NE,42,2.0,3.0,93,0.00,,,0.01,weatherlink.com 1.10,2013-06-23 09:03:00,
2013-06-23 05:18:00,63.9,62.0,30.02,NE,42,1.0,2.0,92,0.00,,,0.01,weatherlink.com 1.10,2013-06-23 09:18:00,
2013-06-23 05:33:00,64.0,62.0,30.02,North,9,1.0,3.0,92,0.00,,,0.01,weatherlink.com 1.10,2013-06-23 09:33:00,
2013-06-23 05:48:00,64.3,62.0,30.02,ENE,58,1.0,4.0,92,0.00,,,0.01,weatherlink.com 1.10,2013-06-23 09:48:00,
2013-06-23 06:03:00,64.6,62.0,30.02,NE,34,1.0,5.0,91,0.00,,,0.01,weatherlink.com 1.10,2013-06-23 10:03:00,
2013-06-23 06:18:00,64.2,62.0,30.02,NE,34,0.0,4.0,92,0.00,,,0.01,weatherlink.com 1.10,2013-06-23 10:18:00,
2013-06-23 06:33:00,64.3,62.0,30.03,NNE,22,1.0,4.0,92,0.00,,,0.01,weatherlink.com 1.10,2013-06-23 10:33:00,
2013-06-23 06:48:00,65.1,63.0,30.03,NNE,25,1.0,5.0,91,0.00,,,0.01,weatherlink.com 1.10,2013-06-23 10:48:00,
2013-06-23 07:03:00,65.6,63.0,30.04,NE,35,1.0,4.0,90,0.00,,,0.01,weatherlink.com 1.10,2013-06-23 11:03:00,
2013-06-23 07:18:00,65.8,63.0,30.04,North,355,2.0,6.0,90,0.00,,,0.01,weatherlink.com 1.10,2013-06-23 11:18:00,
2013-06-23 07:33:00,66.4,63.0,30.04,North,355,3.0,8.0,89,0.00,,,0.01,weatherlink.com 1.10,2013-06-23 11:33:00,
2013-06-23 07:49:00,66.7,63.0,30.04,North,360,2.0,7.0,89,0.00,,,0.01,weatherlink.com 1.10,2013-06-23 11:49:00,
2013-06-23 08:04:00,68.2,65.0,30.04,NNE,30,3.0,6.0,88,0.00,,,0.01,weatherlink.com 1.10,2013-06-23 12:04:00,
2013-06-23 08:19:00,70.0,66.0,30.04,North,5,2.0,8.0,86,0.00,,,0.01,weatherlink.com 1.10,2013-06-23 12:19:00,
2013-06-23 08:34:00,71.3,66.0,30.04,North,355,4.0,7.0,82,0.00,,,0.01,weatherlink.com 1.10,2013-06-23 12:34:00,
2013-06-23 08:49:00,72.7,66.0,30.04,NE,35,4.0,8.0,79,0.00,,,0.01,weatherlink.com 1.10,2013-06-23 12:49:00,
2013-06-23 09:04:00,73.2,67.0,30.04,NNW,327,6.0,9.0,80,0.00,,,0.01,weatherlink.com 1.10,2013-06-23 13:04:00,
2013-06-23 09:19:00,74.5,67.0,30.03,North,355,3.0,8.0,78,0.00,,,0.01,weatherlink.com 1.10,2013-06-23 13:19:00,
2013-06-23 09:34:00,75.6,67.0,30.02,NNE,19,3.0,7.0,75,0.00,,,0.01,weatherlink.com 1.10,2013-06-23 13:34:00,
2013-06-23 09:49:00,76.6,68.0,30.02,NW,326,3.0,6.0,75,0.00,,,0.01,weatherlink.com 1.10,2013-06-23 13:49:00,
2013-06-23 10:04:00,76.5,68.0,30.02,North,355,0.0,8.0,74,0.00,,,0.01,weatherlink.com 1.10,2013-06-23 14:04:00,
2013-06-23 10:19:00,76.9,66.0,30.02,WSW,238,3.0,7.0,70,0.00,,,0.01,weatherlink.com 1.10,2013-06-23 14:19:00,
2013-06-23 10:34:00,76.5,66.0,30.01,WNW,292,0.0,4.0,70,0.00,,,0.01,weatherlink.com 1.10,2013-06-23 14:34:00,
2013-06-23 10:49:00,76.8,67.0,30.01,SW,217,1.0,5.0,71,0.00,,,0.01,weatherlink.com 1.10,2013-06-23 14:49:00,
2013-06-23 11:04:00,77.6,66.0,30.01,NNE,30,1.0,8.0,68,0.00,,,0.01,weatherlink.com 1.10,2013-06-23 15:04:00,
2013-06-23 11:19:00,77.4,66.0,30.01,SSW,202,0.0,8.0,68,0.00,,,0.01,weatherlink.com 1.10,2013-06-23 15:19:00,
2013-06-23 11:34:00,76.9,67.0,30.00,SSW,193,3.0,4.0,71,0.00,,,0.01,weatherlink.com 1.10,2013-06-23 15:34:00,
2013-06-23 11:49:00,78.9,66.0,30.00,South,189,3.0,6.0,65,0.00,,,0.01,weatherlink.com 1.10,2013-06-23 15:49:00,
2013-06-23 12:04:00,78.4,66.0,30.00,ESE,123,2.0,9.0,66,0.00,,,0.01,weatherlink.com 1.10,2013-06-23 16:04:00,
2013-06-23 12:19:00,79.5,66.0,29.99,SW,219,1.0,6.0,63,0.00,,,0.01,weatherlink.com 1.10,2013-06-23 16:19:00,
2013-06-23 12:34:00,79.1,66.0,29.98,WNW,286,1.0,5.0,64,0.00,,,0.01,weatherlink.com 1.10,2013-06-23 16:34:00,
2013-06-23 12:49:00,79.9,67.0,29.97,SSW,203,4.0,9.0,64,0.00,,,0.01,weatherlink.com 1.10,2013-06-23 16:49:00,
2013-06-23 13:05:00,81.4,69.0,29.97,SW,219,11.0,14.0,65,0.00,,,0.01,weatherlink.com 1.10,2013-06-23 17:05:00,
2013-06-23 13:19:00,80.7,66.0,29.97,SW,229,2.0,9.0,62,0.00,,,0.01,weatherlink.com 1.10,2013-06-23 17:19:00,
2013-06-23 13:34:00,81.0,67.0,29.97,South,176,3.0,12.0,63,0.00,,,0.01,weatherlink.com 1.10,2013-06-23 17:34:00,
2013-06-23 13:50:00,79.7,68.0,29.96,SW,214,4.0,8.0,68,0.00,,,0.01,weatherlink.com 1.10,2013-06-23 17:50:00,
2013-06-23 14:05:00,80.4,65.0,29.96,West,271,3.0,7.0,60,0.00,,,0.01,weatherlink.com 1.10,2013-06-23 18:05:00,
2013-06-23 14:20:00,81.8,63.0,29.94,SSW,203,10.0,11.0,53,0.00,,,0.01,weatherlink.com 1.10,2013-06-23 18:20:00,
2013-06-23 14:35:00,82.4,63.0,29.94,SE,143,5.0,11.0,52,0.00,,,0.01,weatherlink.com 1.10,2013-06-23 18:35:00,
2013-06-23 14:50:00,83.3,63.0,29.94,West,265,5.0,12.0,51,0.00,,,0.01,weatherlink.com 1.10,2013-06-23 18:50:00,
2013-06-23 15:05:00,82.5,61.0,29.94,WSW,254,2.0,11.0,49,0.00,,,0.01,weatherlink.com 1.10,2013-06-23 19:05:00,
2013-06-23 15:20:00,80.4,61.0,29.94,South,190,8.0,10.0,52,0.00,,,0.01,weatherlink.com 1.10,2013-06-23 19:20:00,
2013-06-23 15:35:00,80.5,63.0,29.93,SSE,166,3.0,8.0,55,0.00,,,0.01,weatherlink.com 1.10,2013-06-23 19:35:00,
2013-06-23 15:50:00,81.3,64.0,29.93,SW,217,5.0,10.0,55,0.00,,,0.01,weatherlink.com 1.10,2013-06-23 19:50:00,
2013-06-23 16:05:00,82.3,64.0,29.93,South,184,3.0,10.0,54,0.00,,,0.01,weatherlink.com 1.10,2013-06-23 20:05:00,
2013-06-23 16:20:00,82.2,62.0,29.92,SSW,201,3.0,11.0,50,0.00,,,0.01,weatherlink.com 1.10,2013-06-23 20:20:00,
2013-06-23 16:35:00,82.2,62.0,29.91,SSE,155,4.0,8.0,51,0.00,,,0.01,weatherlink.com 1.10,2013-06-23 20:35:00,
2013-06-23 16:50:00,81.6,65.0,29.92,SE,142,4.0,11.0,58,0.00,,,0.01,weatherlink.com 1.10,2013-06-23 20:50:00,
2013-06-23 17:05:00,79.2,65.0,29.92,South,189,2.0,7.0,63,0.00,,,0.01,weatherlink.com 1.10,2013-06-23 21:05:00,
2013-06-23 17:20:00,79.0,65.0,29.92,SE,135,4.0,9.0,63,0.00,,,0.01,weatherlink.com 1.10,2013-06-23 21:20:00,
2013-06-23 17:35:00,79.4,65.0,29.92,SW,215,4.0,8.0,62,0.00,,,0.01,weatherlink.com 1.10,2013-06-23 21:35:00,
2013-06-23 17:50:00,80.0,67.0,29.91,SSW,213,5.0,9.0,64,0.00,,,0.01,weatherlink.com 1.10,2013-06-23 21:50:00,
2013-06-23 18:05:00,79.6,65.0,29.91,SE,136,3.0,9.0,61,0.00,,,0.01,weatherlink.com 1.10,2013-06-23 22:05:00,
2013-06-23 18:20:00,79.0,65.0,29.90,SE,144,1.0,7.0,62,0.00,,,0.01,weatherlink.com 1.10,2013-06-23 22:20:00,
2013-06-23 18:35:00,78.3,65.0,29.91,WSW,245,2.0,8.0,64,0.00,,,0.01,weatherlink.com 1.10,2013-06-23 22:35:00,
2013-06-23 18:50:00,77.7,65.0,29.91,South,169,0.0,7.0,65,0.00,,,0.01,weatherlink.com 1.10,2013-06-23 22:50:00,
2013-06-23 19:05:00,76.2,64.0,29.92,SSW,194,2.0,7.0,67,0.00,,,0.01,weatherlink.com 1.10,2013-06-23 23:05:00,
2013-06-23 19:20:00,75.5,65.0,29.92,South,181,0.0,7.0,69,0.00,,,0.01,weatherlink.com 1.10,2013-06-23 23:20:00,
2013-06-23 19:35:00,74.5,65.0,29.92,South,171,1.0,4.0,72,0.00,,,0.01,weatherlink.com 1.10,2013-06-23 23:35:00,
2013-06-23 19:50:00,73.1,66.0,29.92,South,171,0.0,1.0,77,0.00,,,0.01,weatherlink.com 1.10,2013-06-23 23:50:00,
2013-06-23 20:05:00,71.6,65.0,29.92,South,171,0.0,1.0,79,0.00,,,0.01,weatherlink.com 1.10,2013-06-24 00:05:00,
2013-06-23 20:20:00,69.9,65.0,29.92,South,171,1.0,2.0,83,0.00,,,0.01,weatherlink.com 1.10,2013-06-24 00:20:00,
2013-06-23 20:35:00,68.6,64.0,29.93,South,171,0.0,2.0,84,0.00,,,0.01,weatherlink.com 1.10,2013-06-24 00:35:00,
2013-06-23 20:50:00,67.8,63.0,29.93,South,171,0.0,1.0,85,0.00,,,0.01,weatherlink.com 1.10,2013-06-24 00:50:00,
2013-06-23 21:05:00,66.6,63.0,29.93,South,172,0.0,2.0,87,0.00,,,0.01,weatherlink.com 1.10,2013-06-24 01:05:00,
2013-06-23 21:20:00,65.6,62.0,29.93,South,172,0.0,2.0,88,0.00,,,0.01,weatherlink.com 1.10,2013-06-24 01:20:00,
2013-06-23 21:35:00,65.5,63.0,29.94,WNW,300,0.0,4.0,90,0.00,,,0.01,weatherlink.com 1.10,2013-06-24 01:35:00,
2013-06-23 21:50:00,65.9,63.0,29.95,WNW,299,2.0,3.0,89,0.00,,,0.01,weatherlink.com 1.10,2013-06-24 01:50:00,
2013-06-23 22:05:00,66.5,63.0,29.95,WNW,302,1.0,2.0,88,0.00,,,0.01,weatherlink.com 1.10,2013-06-24 02:05:00,
2013-06-23 22:20:00,68.5,64.0,29.95,SE,144,2.0,4.0,84,0.00,,,0.01,weatherlink.com 1.10,2013-06-24 02:20:00,
2013-06-23 22:35:00,69.0,64.0,29.95,SSW,213,1.0,4.0,83,0.00,,,0.01,weatherlink.com 1.10,2013-06-24 02:35:00,
2013-06-23 22:50:00,69.6,64.0,29.95,SSE,157,2.0,6.0,83,0.00,,,0.01,weatherlink.com 1.10,2013-06-24 02:50:00,
2013-06-23 23:05:00,69.8,64.0,29.95,South,178,0.0,3.0,83,0.00,,,0.01,weatherlink.com 1.10,2013-06-24 03:05:00,
2013-06-23 23:20:00,68.7,64.0,29.95,ENE,64,0.0,4.0,85,0.00,,,0.01,weatherlink.com 1.10,2013-06-24 03:20:00,
2013-06-23 23:35:00,68.2,64.0,29.95,ENE,65,0.0,3.0,85,0.00,,,0.01,weatherlink.com 1.10,2013-06-24 03:35:00,
2013-06-23 23:50:00,66.9,63.0,29.95,ENE,65,0.0,2.0,88,0.00,,,0.01,weatherlink.com 1.10,2013-06-24 03:50:00,